createdAt,value
2017-11-30T00:00:50.841Z,92.17
2017-11-30T00:03:18.578Z,92.22
2017-11-30T00:05:46.296Z,92.26
2017-11-30T00:08:14.011Z,92.86
2017-11-30T00:10:41.783Z,92.70
2017-11-30T00:13:09.492Z,92.06
2017-11-30T00:15:37.233Z,91.94
2017-11-30T00:18:04.961Z,92.01
2017-11-30T00:20:32.740Z,92.59
2017-11-30T00:23:00.564Z,93.10
2017-11-30T00:25:28.370Z,92.75
2017-11-30T00:27:56.131Z,93.30
2017-11-30T00:30:23.852Z,93.16
2017-11-30T00:32:51.989Z,92.66
2017-11-30T00:35:19.924Z,92.39
2017-11-30T00:37:47.620Z,92.41
2017-11-30T00:40:15.440Z,92.57
2017-11-30T00:42:54.873Z,92.62
2017-11-30T00:45:22.673Z,92.80
2017-11-30T00:47:51.333Z,92.72
2017-11-30T00:50:19.098Z,92.49
2017-11-30T00:52:46.814Z,92.37
2017-11-30T00:55:14.519Z,93.12
2017-11-30T00:57:42.305Z,93.79
2017-11-30T01:00:10.012Z,93.59
2017-11-30T01:02:37.770Z,93.05
2017-11-30T01:05:05.556Z,93.19
2017-11-30T01:07:33.402Z,92.93
2017-11-30T01:10:01.083Z,92.59
2017-11-30T01:12:28.784Z,92.75
2017-11-30T01:14:56.517Z,92.73
2017-11-30T01:17:24.313Z,92.72
2017-11-30T01:19:52.016Z,92.37
2017-11-30T01:22:19.750Z,91.83
2017-11-30T01:24:47.501Z,91.66
2017-11-30T01:27:15.271Z,91.93
2017-11-30T01:29:43.037Z,91.90
2017-11-30T01:32:10.777Z,91.98
2017-11-30T01:34:38.455Z,91.65
2017-11-30T01:37:06.137Z,91.31
2017-11-30T01:39:33.898Z,92.22
2017-11-30T01:42:01.613Z,92.08
2017-11-30T01:44:29.354Z,92.10
2017-11-30T01:46:57.065Z,92.71
2017-11-30T01:49:24.848Z,92.83
2017-11-30T01:51:52.573Z,93.20
2017-11-30T01:54:20.375Z,93.07
2017-11-30T01:56:48.189Z,93.14
2017-11-30T01:59:15.913Z,93.30
2017-11-30T02:01:43.681Z,93.27
2017-11-30T02:04:11.529Z,92.92
2017-11-30T02:06:39.318Z,92.48
2017-11-30T02:09:07.033Z,93.19
2017-11-30T02:11:35.370Z,93.11
2017-11-30T02:14:03.107Z,93.18
2017-11-30T02:16:30.854Z,93.98
2017-11-30T02:18:58.580Z,94.01
2017-11-30T02:21:26.376Z,93.74
2017-11-30T02:23:54.159Z,93.69
2017-11-30T02:26:21.970Z,93.67
2017-11-30T02:28:49.750Z,94.00
2017-11-30T02:31:17.489Z,94.16
2017-11-30T02:33:45.328Z,94.19
2017-11-30T02:36:13.075Z,94.41
2017-11-30T02:38:40.911Z,94.24
2017-11-30T02:41:08.803Z,93.90
2017-11-30T02:43:36.504Z,93.25
2017-11-30T02:46:04.333Z,92.88
2017-11-30T02:48:32.176Z,92.66
2017-11-30T02:51:00.129Z,93.10
2017-11-30T02:53:27.875Z,93.15
2017-11-30T02:55:55.724Z,93.78
2017-11-30T02:58:23.497Z,94.46
2017-11-30T03:00:51.277Z,94.34
2017-11-30T03:03:19.075Z,94.09
2017-11-30T03:05:46.843Z,94.10
2017-11-30T03:08:14.608Z,93.95
2017-11-30T03:10:42.418Z,93.99
2017-11-30T03:13:10.218Z,93.88
2017-11-30T03:15:37.948Z,93.60
2017-11-30T03:18:05.737Z,93.54
2017-11-30T03:20:33.458Z,93.86
2017-11-30T03:23:01.232Z,93.63
2017-11-30T03:25:28.987Z,93.71
2017-11-30T03:27:56.768Z,93.75
2017-11-30T03:30:24.487Z,93.47
2017-11-30T03:32:52.274Z,93.58
2017-11-30T03:35:20.095Z,93.41
2017-11-30T03:37:47.813Z,93.62
2017-11-30T03:40:15.571Z,93.98
2017-11-30T03:42:43.308Z,94.03
2017-11-30T03:45:11.064Z,93.91
2017-11-30T03:47:38.839Z,93.87
2017-11-30T03:50:06.551Z,93.85
2017-11-30T03:52:34.296Z,93.96
2017-11-30T03:55:02.039Z,93.93
2017-11-30T03:57:29.806Z,93.98
2017-11-30T03:59:57.516Z,94.01
2017-11-30T04:02:25.224Z,93.92
2017-11-30T04:04:52.990Z,93.91
2017-11-30T04:07:20.699Z,94.12
2017-11-30T04:09:48.417Z,94.23
2017-11-30T04:12:16.147Z,93.40
2017-11-30T04:14:43.822Z,93.30
2017-11-30T04:17:11.594Z,93.43
2017-11-30T04:19:39.308Z,93.48
2017-11-30T04:22:07.008Z,93.17
2017-11-30T04:24:34.774Z,93.09
2017-11-30T04:27:02.481Z,92.66
2017-11-30T04:29:30.225Z,92.80
2017-11-30T04:31:57.933Z,91.47
2017-11-30T04:34:25.666Z,92.43
2017-11-30T04:36:53.537Z,92.89
2017-11-30T04:39:21.257Z,92.35
2017-11-30T04:41:48.994Z,92.65
2017-11-30T04:44:16.730Z,92.62
2017-11-30T04:46:44.542Z,92.50
2017-11-30T04:49:12.280Z,92.51
2017-11-30T04:51:40.033Z,92.20
2017-11-30T04:54:07.826Z,92.36
2017-11-30T04:56:35.732Z,92.57
2017-11-30T04:59:03.563Z,92.43
2017-11-30T05:01:31.273Z,92.19
2017-11-30T05:03:59.299Z,92.82
2017-11-30T05:06:27.175Z,92.87
2017-11-30T05:08:54.892Z,92.96
2017-11-30T05:11:22.694Z,92.73
2017-11-30T05:13:50.446Z,92.34
2017-11-30T05:16:18.164Z,92.75
2017-11-30T05:18:45.977Z,92.45
2017-11-30T05:21:13.714Z,92.75
2017-11-30T05:23:41.494Z,93.10
2017-11-30T05:26:09.203Z,93.25
2017-11-30T05:28:37.030Z,93.32
2017-11-30T05:31:04.784Z,92.98
2017-11-30T05:33:32.642Z,93.08
2017-11-30T05:36:00.333Z,93.02
2017-11-30T05:38:28.047Z,92.85
2017-11-30T05:40:55.804Z,92.87
2017-11-30T05:43:23.560Z,93.22
2017-11-30T05:45:51.255Z,93.44
2017-11-30T05:48:19.629Z,93.00
2017-11-30T05:50:47.385Z,92.50
2017-11-30T05:53:15.129Z,92.81
2017-11-30T05:55:42.963Z,93.26
2017-11-30T05:58:10.728Z,93.10
2017-11-30T06:00:38.542Z,93.11
2017-11-30T06:03:06.271Z,93.43
2017-11-30T06:05:33.951Z,92.26
2017-11-30T06:08:01.752Z,92.37
2017-11-30T06:10:29.459Z,91.48
2017-11-30T06:12:57.220Z,91.73
2017-11-30T06:15:24.979Z,92.69
2017-11-30T06:17:52.649Z,93.10
2017-11-30T06:20:20.812Z,93.31
2017-11-30T06:22:48.530Z,92.12
2017-11-30T06:25:16.300Z,90.95
2017-11-30T06:27:44.046Z,91.42
2017-11-30T06:30:11.750Z,92.42
2017-11-30T06:32:39.481Z,92.50
2017-11-30T06:35:07.232Z,90.35
2017-11-30T06:37:34.936Z,90.79
2017-11-30T06:40:02.703Z,90.48
2017-11-30T06:42:30.408Z,90.94
2017-11-30T06:44:58.182Z,90.93
2017-11-30T06:47:25.946Z,90.92
2017-11-30T06:49:53.619Z,91.03
2017-11-30T06:52:21.376Z,90.87
2017-11-30T06:54:49.089Z,91.01
2017-11-30T06:57:16.884Z,90.65
2017-11-30T06:59:44.596Z,89.94
2017-11-30T07:02:12.294Z,90.04
2017-11-30T07:04:40.061Z,90.65
2017-11-30T07:07:07.935Z,91.10
2017-11-30T07:09:35.709Z,91.21
2017-11-30T07:12:03.481Z,91.17
2017-11-30T07:14:31.236Z,90.87
2017-11-30T07:16:58.952Z,89.62
2017-11-30T07:19:26.704Z,89.69
2017-11-30T07:21:54.366Z,90.28
2017-11-30T07:24:22.287Z,90.13
2017-11-30T07:26:50.008Z,91.29
2017-11-30T07:29:18.119Z,91.15
2017-11-30T07:31:45.853Z,90.38
2017-11-30T07:34:13.604Z,91.46
2017-11-30T07:36:41.455Z,91.50
2017-11-30T07:39:09.234Z,91.77
2017-11-30T07:41:36.995Z,91.29
2017-11-30T07:44:04.736Z,91.03
2017-11-30T07:46:32.465Z,91.96
2017-11-30T07:49:00.266Z,90.45
2017-11-30T07:51:28.018Z,89.25
2017-11-30T07:53:55.760Z,89.14
2017-11-30T07:56:23.591Z,89.91
2017-11-30T07:58:51.302Z,89.30
2017-11-30T08:01:19.011Z,89.15
2017-11-30T08:03:46.742Z,89.96
2017-11-30T08:06:14.432Z,90.69
2017-11-30T08:08:42.203Z,90.38
2017-11-30T08:11:09.919Z,90.99
2017-11-30T08:13:37.684Z,90.87
2017-11-30T08:16:05.378Z,90.56
2017-11-30T08:18:33.160Z,87.89
2017-11-30T08:21:00.951Z,88.25
2017-11-30T08:23:28.716Z,88.49
2017-11-30T08:25:56.447Z,86.95
2017-11-30T08:28:24.226Z,86.51
2017-11-30T08:30:51.991Z,86.75
2017-11-30T08:33:19.692Z,86.06
2017-11-30T08:35:47.479Z,84.46
2017-11-30T08:38:15.393Z,83.65
2017-11-30T08:40:43.231Z,84.38
2017-11-30T08:43:10.936Z,84.27
2017-11-30T08:45:38.696Z,85.28
2017-11-30T08:48:06.409Z,84.14
2017-11-30T08:50:34.236Z,85.07
2017-11-30T08:53:02.174Z,82.10
2017-11-30T08:55:29.918Z,85.16
2017-11-30T08:57:57.668Z,82.38
2017-11-30T09:00:25.497Z,86.26
2017-11-30T09:02:53.302Z,85.90
2017-11-30T09:05:21.076Z,86.58
2017-11-30T09:07:49.996Z,87.58
2017-11-30T09:10:17.757Z,87.44
2017-11-30T09:12:45.475Z,87.17
2017-11-30T09:15:13.267Z,87.25
2017-11-30T09:17:41.739Z,82.66
2017-11-30T09:20:09.495Z,84.08
2017-11-30T09:22:37.244Z,83.91
2017-11-30T09:25:05.035Z,84.68
2017-11-30T09:27:32.806Z,85.06
2017-11-30T09:30:00.551Z,85.79
2017-11-30T09:32:28.252Z,85.55
2017-11-30T09:34:56.023Z,85.92
2017-11-30T09:37:23.809Z,86.59
2017-11-30T09:39:51.588Z,85.45
2017-11-30T09:42:19.290Z,85.57
2017-11-30T09:44:47.038Z,84.05
2017-11-30T09:47:15.636Z,83.28
2017-11-30T09:49:43.451Z,83.27
2017-11-30T09:52:11.140Z,79.23
2017-11-30T09:54:38.945Z,80.66
2017-11-30T09:57:06.747Z,80.57
2017-11-30T09:59:34.522Z,79.30
2017-11-30T10:02:02.328Z,77.50
2017-11-30T10:04:30.039Z,77.88
2017-11-30T10:06:57.803Z,78.48
2017-11-30T10:09:25.520Z,77.93
2017-11-30T10:11:53.719Z,77.51
2017-11-30T10:14:21.623Z,77.25
2017-11-30T10:16:49.383Z,77.06
2017-11-30T10:19:17.137Z,76.17
2017-11-30T10:21:44.939Z,75.71
2017-11-30T10:24:12.669Z,74.91
2017-11-30T10:26:41.309Z,77.18
2017-11-30T10:29:09.085Z,77.19
2017-11-30T10:31:36.836Z,77.30
2017-11-30T10:34:04.537Z,77.32
2017-11-30T10:36:32.330Z,77.58
2017-11-30T10:39:00.043Z,76.78
2017-11-30T10:41:27.778Z,76.30
2017-11-30T10:43:55.575Z,79.96
2017-11-30T10:46:23.304Z,76.36
2017-11-30T10:48:51.081Z,77.10
2017-11-30T10:51:18.815Z,77.97
2017-11-30T10:53:46.900Z,76.62
2017-11-30T10:56:14.697Z,78.40
2017-11-30T10:58:42.445Z,77.74
2017-11-30T11:01:10.169Z,77.10
2017-11-30T11:03:38.069Z,78.73
2017-11-30T11:06:05.768Z,79.15
2017-11-30T11:08:33.519Z,77.19
2017-11-30T11:11:01.241Z,78.51
2017-11-30T11:13:29.035Z,79.15
2017-11-30T11:15:56.765Z,79.54
2017-11-30T11:18:24.690Z,80.01
2017-11-30T11:20:52.471Z,79.49
2017-11-30T11:23:20.341Z,79.52
2017-11-30T11:25:48.179Z,80.21
2017-11-30T11:28:16.009Z,80.44
2017-11-30T11:30:43.834Z,81.61
2017-11-30T11:33:11.907Z,80.56
2017-11-30T11:35:39.655Z,80.34
2017-11-30T11:38:07.394Z,79.99
2017-11-30T11:40:35.201Z,80.47
2017-11-30T11:43:02.914Z,80.04
2017-11-30T11:45:30.653Z,80.91
2017-11-30T11:47:58.523Z,80.31
2017-11-30T11:50:26.211Z,80.14
2017-11-30T11:52:53.925Z,80.24
2017-11-30T11:55:21.776Z,81.65
2017-11-30T11:57:49.486Z,80.19
2017-11-30T12:00:17.222Z,81.01
2017-11-30T12:02:44.963Z,80.78
2017-11-30T12:05:12.713Z,81.85
2017-11-30T12:07:40.467Z,80.56
2017-11-30T12:10:08.154Z,81.05
2017-11-30T12:12:35.911Z,79.93
2017-11-30T12:15:03.589Z,81.36
2017-11-30T12:17:31.547Z,81.14
2017-11-30T12:19:59.309Z,80.78
2017-11-30T12:22:27.022Z,81.06
2017-11-30T12:24:55.342Z,80.86
2017-11-30T12:27:23.148Z,81.48
2017-11-30T12:29:50.976Z,79.96
2017-11-30T12:32:19.003Z,80.23
2017-11-30T12:34:46.692Z,80.74
2017-11-30T12:37:14.404Z,81.27
2017-11-30T12:39:42.218Z,81.64
2017-11-30T12:42:10.085Z,80.63
2017-11-30T12:44:38.577Z,80.81
2017-11-30T12:47:06.493Z,82.42
2017-11-30T12:49:34.206Z,81.13
2017-11-30T12:52:01.986Z,80.98
2017-11-30T12:54:29.747Z,81.71
2017-11-30T12:56:57.546Z,81.72
2017-11-30T12:59:25.371Z,81.77
2017-11-30T13:01:53.092Z,81.23
2017-11-30T13:04:20.837Z,81.14
2017-11-30T13:06:48.599Z,83.49
2017-11-30T13:09:16.410Z,84.48
2017-11-30T13:11:44.181Z,83.90
2017-11-30T13:14:11.917Z,84.33
2017-11-30T13:16:40.445Z,84.38
2017-11-30T13:19:08.129Z,84.40
2017-11-30T13:21:35.953Z,84.94
2017-11-30T13:24:03.872Z,85.20
2017-11-30T13:26:31.556Z,85.09
2017-11-30T13:28:59.302Z,84.57
2017-11-30T13:31:27.069Z,84.39
2017-11-30T13:33:54.845Z,84.25
2017-11-30T13:36:22.618Z,83.96
2017-11-30T13:38:50.388Z,84.40
2017-11-30T13:41:18.148Z,84.08
2017-11-30T13:43:45.867Z,84.31
2017-11-30T13:46:14.151Z,83.32
2017-11-30T13:48:41.890Z,83.67
2017-11-30T13:51:10.190Z,83.30
2017-11-30T13:53:38.009Z,84.42
2017-11-30T13:56:05.737Z,83.48
2017-11-30T13:58:33.456Z,82.64
2017-11-30T14:01:01.233Z,83.40
2017-11-30T14:03:29.767Z,83.61
2017-11-30T14:05:57.895Z,84.58
2017-11-30T14:08:25.634Z,84.36
2017-11-30T14:10:53.407Z,84.10
2017-11-30T14:13:21.169Z,84.65
2017-11-30T14:15:48.951Z,85.17
2017-11-30T14:18:16.739Z,84.51
2017-11-30T14:20:44.511Z,85.74
2017-11-30T14:23:12.212Z,86.08
2017-11-30T14:25:39.973Z,86.07
2017-11-30T14:28:08.338Z,86.84
2017-11-30T14:30:36.449Z,85.23
2017-11-30T14:33:04.351Z,85.62
2017-11-30T14:35:32.078Z,86.18
2017-11-30T14:38:00.452Z,86.87
2017-11-30T14:40:28.295Z,87.51
2017-11-30T14:42:57.269Z,87.57
2017-11-30T14:45:24.984Z,87.89
2017-11-30T14:47:52.805Z,87.86
2017-11-30T14:50:20.553Z,87.61
2017-11-30T14:52:48.294Z,87.93
2017-11-30T14:55:16.720Z,87.11
2017-11-30T14:57:44.626Z,87.64
2017-11-30T15:00:12.427Z,87.90
2017-11-30T15:02:40.136Z,88.20
2017-11-30T15:05:07.900Z,88.26
2017-11-30T15:07:35.686Z,88.00
2017-11-30T15:10:03.372Z,88.06
2017-11-30T15:12:31.112Z,88.69
2017-11-30T15:14:58.782Z,89.17
2017-11-30T15:17:26.548Z,89.64
2017-11-30T15:19:54.313Z,89.19
2017-11-30T15:22:22.067Z,89.33
2017-11-30T15:24:49.748Z,89.49
2017-11-30T15:27:18.425Z,89.97
2017-11-30T15:29:46.282Z,90.21
2017-11-30T15:32:14.026Z,89.82
2017-11-30T15:34:41.752Z,90.06
2017-11-30T15:37:09.592Z,90.05
2017-11-30T15:39:37.280Z,89.66
2017-11-30T15:42:04.984Z,89.23
2017-11-30T15:44:32.750Z,89.29
2017-11-30T15:47:00.486Z,89.33
2017-11-30T15:49:28.323Z,89.74
2017-11-30T15:51:56.028Z,89.09
2017-11-30T15:54:23.895Z,88.49
2017-11-30T15:56:51.726Z,88.00
2017-11-30T15:59:19.548Z,87.97
2017-11-30T16:01:47.312Z,88.11
2017-11-30T16:04:15.027Z,88.67
2017-11-30T16:06:43.594Z,87.69
2017-11-30T16:09:11.317Z,87.62
2017-11-30T16:11:39.075Z,87.88
2017-11-30T16:14:06.853Z,88.81
2017-11-30T16:16:34.598Z,88.33
2017-11-30T16:19:02.339Z,88.70
2017-11-30T16:21:30.043Z,88.66
2017-11-30T16:23:57.868Z,88.95
2017-11-30T16:26:25.650Z,88.84
2017-11-30T16:28:53.393Z,89.07
2017-11-30T16:31:21.183Z,89.10
2017-11-30T16:33:48.883Z,89.07
2017-11-30T16:36:17.537Z,89.56
2017-11-30T16:38:45.343Z,89.47
2017-11-30T16:41:13.202Z,89.23
2017-11-30T16:43:41.051Z,88.41
2017-11-30T16:46:09.028Z,88.36
2017-11-30T16:48:36.834Z,87.64
2017-11-30T16:51:04.988Z,88.26
2017-11-30T16:53:32.800Z,88.53
2017-11-30T16:56:00.600Z,88.19
2017-11-30T16:58:28.408Z,88.99
2017-11-30T17:00:56.127Z,89.08
2017-11-30T17:03:24.008Z,88.44
2017-11-30T17:05:51.901Z,87.57
2017-11-30T17:08:19.675Z,87.99
2017-11-30T17:10:47.480Z,88.66
2017-11-30T17:13:15.679Z,88.43
2017-11-30T17:15:43.384Z,87.54
2017-11-30T17:18:11.185Z,88.30
2017-11-30T17:20:38.945Z,89.30
2017-11-30T17:23:08.045Z,87.46
2017-11-30T17:25:35.794Z,85.71
2017-11-30T17:28:03.617Z,87.65
2017-11-30T17:30:31.416Z,87.60
2017-11-30T17:32:59.242Z,88.33
2017-11-30T17:35:27.116Z,88.74
2017-11-30T17:37:54.985Z,89.30
2017-11-30T17:40:22.891Z,88.57
2017-11-30T17:42:51.109Z,87.83
2017-11-30T17:45:18.929Z,88.14
2017-11-30T17:47:46.719Z,88.29
2017-11-30T17:50:14.522Z,88.02
2017-11-30T17:52:43.358Z,88.14
2017-11-30T17:55:11.132Z,88.00
2017-11-30T17:57:38.870Z,87.74
2017-11-30T18:00:06.724Z,87.72
2017-11-30T18:02:34.506Z,87.99
2017-11-30T18:05:02.441Z,87.30
2017-11-30T18:07:30.542Z,87.34
2017-11-30T18:09:58.410Z,87.50
2017-11-30T18:12:26.153Z,88.01
2017-11-30T18:14:53.946Z,87.85
2017-11-30T18:17:21.671Z,87.81
2017-11-30T18:19:49.508Z,88.19
2017-11-30T18:22:17.298Z,88.03
2017-11-30T18:24:45.439Z,87.63
2017-11-30T18:27:13.572Z,88.51
2017-11-30T18:29:41.568Z,87.34
2017-11-30T18:32:09.700Z,86.51
2017-11-30T18:34:37.744Z,86.08
2017-11-30T18:37:05.579Z,86.75
2017-11-30T18:39:36.884Z,86.69
2017-11-30T18:42:05.883Z,87.43
2017-11-30T18:44:33.928Z,87.78
2017-11-30T18:47:01.825Z,88.01
2017-11-30T18:49:30.686Z,86.83
2017-11-30T18:51:59.602Z,87.42
2017-11-30T18:54:27.724Z,86.68
2017-11-30T18:56:59.994Z,87.59
2017-11-30T18:59:28.483Z,87.98
2017-11-30T19:01:56.280Z,87.67
2017-11-30T19:04:24.241Z,86.67
2017-11-30T19:06:51.989Z,87.28
2017-11-30T19:09:19.834Z,87.02
2017-11-30T19:11:48.013Z,87.19
2017-11-30T19:14:15.875Z,86.87
2017-11-30T19:16:44.092Z,87.24
2017-11-30T19:19:11.931Z,85.46
2017-11-30T19:21:40.748Z,86.15
2017-11-30T19:24:08.907Z,86.39
2017-11-30T19:26:37.706Z,87.31
2017-11-30T19:29:05.866Z,87.39
2017-11-30T19:31:34.694Z,87.32
2017-11-30T19:34:02.954Z,87.46
2017-11-30T19:36:30.774Z,87.68
2017-11-30T19:38:58.831Z,88.20
2017-11-30T19:41:35.020Z,88.44
2017-11-30T19:44:04.759Z,88.54
2017-11-30T19:46:34.048Z,88.13
2017-11-30T19:49:01.961Z,88.30
2017-11-30T19:51:29.869Z,88.35
2017-11-30T19:53:58.996Z,88.34
2017-11-30T19:56:27.001Z,88.60
2017-11-30T19:58:54.929Z,89.41
2017-11-30T20:01:22.851Z,89.32
2017-11-30T20:03:51.166Z,89.02
2017-11-30T20:06:20.059Z,89.07
2017-11-30T20:08:47.895Z,89.04
2017-11-30T20:11:16.687Z,89.20
2017-11-30T20:13:44.560Z,88.93
2017-11-30T20:16:12.563Z,88.94
2017-11-30T20:18:40.540Z,88.88
2017-11-30T20:21:09.728Z,89.02
2017-11-30T20:23:37.558Z,89.32
2017-11-30T20:26:05.507Z,89.08
2017-11-30T20:28:33.533Z,88.87
2017-11-30T20:31:01.307Z,89.11
2017-11-30T20:33:29.079Z,89.09
2017-11-30T20:35:57.195Z,89.30
2017-11-30T20:38:25.622Z,89.69
2017-11-30T20:40:53.788Z,89.31
2017-11-30T20:43:21.551Z,88.32
2017-11-30T20:45:49.444Z,88.31
2017-11-30T20:48:17.241Z,88.21
2017-11-30T20:50:45.117Z,88.55
2017-11-30T20:53:12.988Z,89.07
2017-11-30T20:55:40.812Z,89.06
2017-11-30T20:58:08.540Z,88.97
2017-11-30T21:00:36.551Z,88.89
2017-11-30T21:03:04.304Z,88.71
2017-11-30T21:05:32.133Z,88.30
2017-11-30T21:07:59.867Z,88.24
2017-11-30T21:10:27.589Z,88.11
2017-11-30T21:12:55.450Z,88.00
2017-11-30T21:15:23.201Z,87.95
2017-11-30T21:17:50.979Z,87.90
2017-11-30T21:20:19.078Z,88.61
2017-11-30T21:22:46.957Z,88.63
2017-11-30T21:25:18.477Z,88.36
2017-11-30T21:27:46.239Z,88.56
2017-11-30T21:30:14.118Z,88.55
2017-11-30T21:32:41.902Z,88.73
2017-11-30T21:35:09.789Z,88.85
2017-11-30T21:37:38.345Z,88.93
2017-11-30T21:40:06.073Z,88.84
2017-11-30T21:42:34.128Z,88.09
2017-11-30T21:45:02.135Z,87.86
2017-11-30T21:47:29.836Z,87.87
2017-11-30T21:49:57.639Z,87.73
2017-11-30T21:52:25.445Z,88.10
2017-11-30T21:54:53.211Z,88.51
2017-11-30T21:57:20.948Z,88.21
2017-11-30T21:59:48.738Z,88.54
2017-11-30T22:02:17.544Z,88.29
2017-11-30T22:04:45.266Z,88.06
2017-11-30T22:07:13.370Z,88.20
2017-11-30T22:09:41.276Z,87.94
2017-11-30T22:12:09.036Z,88.93
2017-11-30T22:14:36.732Z,89.23
2017-11-30T22:17:04.531Z,88.78
2017-11-30T22:19:32.210Z,88.89
2017-11-30T22:22:00.008Z,88.80
2017-11-30T22:24:27.810Z,88.62
2017-11-30T22:26:55.577Z,88.51
2017-11-30T22:29:23.329Z,88.33
2017-11-30T22:31:51.044Z,88.25
2017-11-30T22:34:18.744Z,88.66
2017-11-30T22:36:46.724Z,88.11
2017-11-30T22:39:14.506Z,87.97
2017-11-30T22:41:42.255Z,87.65
2017-11-30T22:44:10.005Z,86.81
2017-11-30T22:46:37.755Z,87.29
2017-11-30T22:49:05.704Z,89.37
2017-11-30T22:51:33.402Z,90.02
2017-11-30T22:54:01.225Z,89.89
2017-11-30T22:56:29.145Z,90.07
2017-11-30T22:58:56.896Z,89.65
2017-11-30T23:01:24.798Z,89.69
2017-11-30T23:03:52.546Z,90.14
2017-11-30T23:06:20.306Z,90.59
2017-11-30T23:08:48.034Z,89.76
2017-11-30T23:11:15.742Z,88.23
2017-11-30T23:13:43.503Z,87.65
2017-11-30T23:16:11.288Z,87.61
2017-11-30T23:18:38.983Z,87.14
2017-11-30T23:21:06.757Z,86.60
2017-11-30T23:23:34.472Z,86.96
2017-11-30T23:26:02.265Z,88.12
2017-11-30T23:28:30.050Z,87.61
2017-11-30T23:30:57.765Z,86.84
2017-11-30T23:33:25.515Z,86.73
2017-11-30T23:35:53.194Z,87.07
2017-11-30T23:38:20.956Z,86.73
2017-11-30T23:40:48.715Z,86.63
2017-11-30T23:43:16.407Z,86.65
2017-11-30T23:45:44.142Z,86.47
2017-11-30T23:48:11.880Z,86.62
2017-11-30T23:50:39.585Z,86.33
2017-11-30T23:53:07.304Z,86.73
2017-11-30T23:55:35.005Z,86.95
2017-11-30T23:58:02.717Z,86.86
